sensor_id;sensor_type;location;lat;lon;timestamp;P1;durP1;ratioP1;P2;durP2;ratioP2
21183;SDS011;18176;49.502;11.754;2022-08-03T00:03:53;6.25;;;4.57;;
21183;SDS011;18176;49.502;11.754;2022-08-03T00:07:51;7.30;;;4.90;;
21183;SDS011;18176;49.502;11.754;2022-08-03T00:11:48;6.72;;;4.80;;
21183;SDS011;18176;49.502;11.754;2022-08-03T00:15:46;5.15;;;4.53;;
21183;SDS011;18176;49.502;11.754;2022-08-03T00:19:43;6.28;;;5.00;;
21183;SDS011;18176;49.502;11.754;2022-08-03T00:23:40;5.50;;;4.82;;
21183;SDS011;18176;49.502;11.754;2022-08-03T00:27:48;5.50;;;4.50;;
21183;SDS011;18176;49.502;11.754;2022-08-03T00:31:46;5.60;;;4.50;;
21183;SDS011;18176;49.502;11.754;2022-08-03T00:35:49;6.15;;;4.43;;
21183;SDS011;18176;49.502;11.754;2022-08-03T00:39:47;8.70;;;4.55;;
21183;SDS011;18176;49.502;11.754;2022-08-03T00:43:44;7.85;;;4.70;;
21183;SDS011;18176;49.502;11.754;2022-08-03T00:47:43;8.77;;;5.10;;
21183;SDS011;18176;49.502;11.754;2022-08-03T00:51:41;5.60;;;4.45;;
21183;SDS011;18176;49.502;11.754;2022-08-03T00:55:39;5.95;;;4.55;;
21183;SDS011;18176;49.502;11.754;2022-08-03T00:59:37;6.95;;;4.88;;
21183;SDS011;18176;49.502;11.754;2022-08-03T01:03:34;6.03;;;4.70;;
21183;SDS011;18176;49.502;11.754;2022-08-03T01:13:05;8.10;;;4.88;;
21183;SDS011;18176;49.502;11.754;2022-08-03T01:17:42;7.50;;;4.80;;
21183;SDS011;18176;49.502;11.754;2022-08-03T01:22:03;5.63;;;4.47;;
21183;SDS011;18176;49.502;11.754;2022-08-03T01:30:43;5.57;;;4.35;;
21183;SDS011;18176;49.502;11.754;2022-08-03T01:34:44;6.65;;;5.20;;
21183;SDS011;18176;49.502;11.754;2022-08-03T01:39:00;6.22;;;4.97;;
21183;SDS011;18176;49.502;11.754;2022-08-03T01:43:04;6.85;;;4.70;;
21183;SDS011;18176;49.502;11.754;2022-08-03T01:47:04;7.45;;;4.50;;
21183;SDS011;18176;49.502;11.754;2022-08-03T01:51:03;5.30;;;4.80;;
21183;SDS011;18176;49.502;11.754;2022-08-03T01:55:04;6.20;;;5.10;;
21183;SDS011;18176;49.502;11.754;2022-08-03T01:59:03;6.60;;;5.13;;
21183;SDS011;18176;49.502;11.754;2022-08-03T02:03:04;5.97;;;5.05;;
21183;SDS011;18176;49.502;11.754;2022-08-03T02:07:02;7.65;;;4.55;;
21183;SDS011;18176;49.502;11.754;2022-08-03T02:10:59;4.97;;;4.47;;
21183;SDS011;18176;49.502;11.754;2022-08-03T02:14:59;7.95;;;5.40;;
21183;SDS011;18176;49.502;11.754;2022-08-03T02:18:59;5.50;;;4.60;;
21183;SDS011;18176;49.502;11.754;2022-08-03T02:23:01;5.37;;;4.60;;
21183;SDS011;18176;49.502;11.754;2022-08-03T02:26:59;6.72;;;4.80;;
21183;SDS011;18176;49.502;11.754;2022-08-03T02:31:02;7.03;;;4.90;;
21183;SDS011;18176;49.502;11.754;2022-08-03T02:35:10;8.77;;;5.10;;
21183;SDS011;18176;49.502;11.754;2022-08-03T02:39:10;6.25;;;5.13;;
21183;SDS011;18176;49.502;11.754;2022-08-03T02:43:14;7.07;;;4.95;;
21183;SDS011;18176;49.502;11.754;2022-08-03T02:47:17;7.70;;;5.38;;
21183;SDS011;18176;49.502;11.754;2022-08-03T02:51:17;6.13;;;5.18;;
21183;SDS011;18176;49.502;11.754;2022-08-03T02:55:16;6.50;;;5.70;;
21183;SDS011;18176;49.502;11.754;2022-08-03T02:59:17;7.63;;;5.50;;
21183;SDS011;18176;49.502;11.754;2022-08-03T03:03:15;6.07;;;5.47;;
21183;SDS011;18176;49.502;11.754;2022-08-03T03:07:14;7.43;;;5.43;;
21183;SDS011;18176;49.502;11.754;2022-08-03T03:11:14;10.00;;;5.33;;
21183;SDS011;18176;49.502;11.754;2022-08-03T03:15:14;7.53;;;5.38;;
21183;SDS011;18176;49.502;11.754;2022-08-03T03:19:12;7.57;;;5.60;;
21183;SDS011;18176;49.502;11.754;2022-08-03T03:23:12;5.00;;;4.47;;
21183;SDS011;18176;49.502;11.754;2022-08-03T03:27:11;7.85;;;5.43;;
21183;SDS011;18176;49.502;11.754;2022-08-03T03:31:12;5.20;;;4.70;;
21183;SDS011;18176;49.502;11.754;2022-08-03T03:35:09;6.47;;;5.40;;
21183;SDS011;18176;49.502;11.754;2022-08-03T03:39:09;6.53;;;4.97;;
21183;SDS011;18176;49.502;11.754;2022-08-03T03:43:11;5.70;;;5.10;;
21183;SDS011;18176;49.502;11.754;2022-08-03T03:47:08;8.57;;;5.37;;
21183;SDS011;18176;49.502;11.754;2022-08-03T03:51:07;6.60;;;5.90;;
21183;SDS011;18176;49.502;11.754;2022-08-03T03:55:05;7.37;;;6.27;;
21183;SDS011;18176;49.502;11.754;2022-08-03T03:59:05;9.40;;;6.30;;
21183;SDS011;18176;49.502;11.754;2022-08-03T04:03:02;5.70;;;4.95;;
21183;SDS011;18176;49.502;11.754;2022-08-03T04:07:00;7.20;;;5.40;;
21183;SDS011;18176;49.502;11.754;2022-08-03T04:11:20;6.60;;;5.30;;
21183;SDS011;18176;49.502;11.754;2022-08-03T04:15:27;5.50;;;5.00;;
21183;SDS011;18176;49.502;11.754;2022-08-03T04:23:30;8.07;;;5.03;;
21183;SDS011;18176;49.502;11.754;2022-08-03T04:27:32;5.90;;;5.07;;
21183;SDS011;18176;49.502;11.754;2022-08-03T04:31:35;5.73;;;5.10;;
21183;SDS011;18176;49.502;11.754;2022-08-03T04:35:35;5.80;;;4.87;;
21183;SDS011;18176;49.502;11.754;2022-08-03T04:39:52;8.87;;;5.23;;
21183;SDS011;18176;49.502;11.754;2022-08-03T04:43:54;6.97;;;5.50;;
21183;SDS011;18176;49.502;11.754;2022-08-03T04:47:54;6.47;;;5.40;;
21183;SDS011;18176;49.502;11.754;2022-08-03T04:51:52;6.33;;;5.43;;
21183;SDS011;18176;49.502;11.754;2022-08-03T04:55:49;8.85;;;5.53;;
21183;SDS011;18176;49.502;11.754;2022-08-03T04:59:46;9.82;;;5.75;;
21183;SDS011;18176;49.502;11.754;2022-08-03T05:03:53;6.47;;;5.78;;
21183;SDS011;18176;49.502;11.754;2022-08-03T05:07:50;6.38;;;5.55;;
21183;SDS011;18176;49.502;11.754;2022-08-03T05:11:48;6.47;;;5.77;;
21183;SDS011;18176;49.502;11.754;2022-08-03T05:15:45;7.25;;;6.10;;
21183;SDS011;18176;49.502;11.754;2022-08-03T05:19:42;8.63;;;6.20;;
21183;SDS011;18176;49.502;11.754;2022-08-03T05:23:39;9.73;;;6.50;;
21183;SDS011;18176;49.502;11.754;2022-08-03T05:27:36;9.45;;;7.05;;
21183;SDS011;18176;49.502;11.754;2022-08-03T05:31:33;10.25;;;6.82;;
21183;SDS011;18176;49.502;11.754;2022-08-03T05:35:31;9.32;;;7.22;;
21183;SDS011;18176;49.502;11.754;2022-08-03T05:39:50;11.13;;;7.57;;
21183;SDS011;18176;49.502;11.754;2022-08-03T05:43:47;8.98;;;6.90;;
21183;SDS011;18176;49.502;11.754;2022-08-03T05:47:44;10.85;;;7.32;;
21183;SDS011;18176;49.502;11.754;2022-08-03T05:51:41;9.70;;;7.50;;
21183;SDS011;18176;49.502;11.754;2022-08-03T05:55:38;11.70;;;8.05;;
21183;SDS011;18176;49.502;11.754;2022-08-03T05:59:37;11.45;;;8.10;;
21183;SDS011;18176;49.502;11.754;2022-08-03T06:03:49;10.30;;;7.25;;
21183;SDS011;18176;49.502;11.754;2022-08-03T06:07:47;7.93;;;6.93;;
21183;SDS011;18176;49.502;11.754;2022-08-03T06:11:44;12.40;;;7.80;;
21183;SDS011;18176;49.502;11.754;2022-08-03T06:15:41;10.98;;;7.80;;
21183;SDS011;18176;49.502;11.754;2022-08-03T06:19:39;20.00;;;9.20;;
21183;SDS011;18176;49.502;11.754;2022-08-03T06:23:36;13.57;;;9.30;;
21183;SDS011;18176;49.502;11.754;2022-08-03T06:27:50;13.77;;;8.43;;
21183;SDS011;18176;49.502;11.754;2022-08-03T06:31:47;18.17;;;8.05;;
21183;SDS011;18176;49.502;11.754;2022-08-03T06:35:44;9.73;;;7.15;;
21183;SDS011;18176;49.502;11.754;2022-08-03T06:39:41;8.18;;;6.80;;
21183;SDS011;18176;49.502;11.754;2022-08-03T06:43:42;9.27;;;7.07;;
21183;SDS011;18176;49.502;11.754;2022-08-03T06:48:09;9.55;;;7.65;;
21183;SDS011;18176;49.502;11.754;2022-08-03T06:52:08;12.85;;;7.28;;
21183;SDS011;18176;49.502;11.754;2022-08-03T06:56:05;6.50;;;5.80;;
21183;SDS011;18176;49.502;11.754;2022-08-03T07:00:03;15.43;;;5.82;;
21183;SDS011;18176;49.502;11.754;2022-08-03T07:04:07;7.18;;;4.90;;
21183;SDS011;18176;49.502;11.754;2022-08-03T07:08:04;11.93;;;4.30;;
21183;SDS011;18176;49.502;11.754;2022-08-03T07:12:02;5.32;;;4.22;;
21183;SDS011;18176;49.502;11.754;2022-08-03T07:16:01;6.47;;;3.70;;
21183;SDS011;18176;49.502;11.754;2022-08-03T07:19:59;7.75;;;3.53;;
21183;SDS011;18176;49.502;11.754;2022-08-03T07:23:59;5.88;;;3.13;;
21183;SDS011;18176;49.502;11.754;2022-08-03T07:27:56;3.78;;;3.22;;
21183;SDS011;18176;49.502;11.754;2022-08-03T07:31:53;4.53;;;3.20;;
21183;SDS011;18176;49.502;11.754;2022-08-03T07:35:50;3.55;;;3.03;;
21183;SDS011;18176;49.502;11.754;2022-08-03T07:39:47;6.53;;;3.22;;
21183;SDS011;18176;49.502;11.754;2022-08-03T07:43:44;3.92;;;2.95;;
21183;SDS011;18176;49.502;11.754;2022-08-03T07:47:44;10.30;;;3.20;;
21183;SDS011;18176;49.502;11.754;2022-08-03T07:51:49;3.50;;;3.00;;
21183;SDS011;18176;49.502;11.754;2022-08-03T07:56:06;5.80;;;3.38;;
21183;SDS011;18176;49.502;11.754;2022-08-03T08:00:11;3.08;;;2.80;;
21183;SDS011;18176;49.502;11.754;2022-08-03T08:04:14;3.10;;;2.75;;
21183;SDS011;18176;49.502;11.754;2022-08-03T08:08:12;3.33;;;3.00;;
21183;SDS011;18176;49.502;11.754;2022-08-03T08:12:09;5.25;;;3.00;;
21183;SDS011;18176;49.502;11.754;2022-08-03T08:16:11;5.75;;;3.60;;
21183;SDS011;18176;49.502;11.754;2022-08-03T08:20:09;4.70;;;3.67;;
21183;SDS011;18176;49.502;11.754;2022-08-03T08:24:19;5.95;;;3.58;;
21183;SDS011;18176;49.502;11.754;2022-08-03T08:28:17;3.50;;;3.20;;
21183;SDS011;18176;49.502;11.754;2022-08-03T08:32:27;3.33;;;2.97;;
21183;SDS011;18176;49.502;11.754;2022-08-03T08:36:24;3.97;;;3.13;;
21183;SDS011;18176;49.502;11.754;2022-08-03T08:40:21;4.63;;;3.10;;
21183;SDS011;18176;49.502;11.754;2022-08-03T08:44:18;3.25;;;2.80;;
21183;SDS011;18176;49.502;11.754;2022-08-03T08:48:17;3.42;;;3.13;;
21183;SDS011;18176;49.502;11.754;2022-08-03T08:52:24;2.60;;;2.40;;
21183;SDS011;18176;49.502;11.754;2022-08-03T08:56:27;4.63;;;2.22;;
21183;SDS011;18176;49.502;11.754;2022-08-03T09:00:27;2.83;;;2.30;;
21183;SDS011;18176;49.502;11.754;2022-08-03T09:04:29;2.85;;;2.00;;
21183;SDS011;18176;49.502;11.754;2022-08-03T09:08:27;2.50;;;2.20;;
21183;SDS011;18176;49.502;11.754;2022-08-03T09:12:26;4.65;;;2.17;;
21183;SDS011;18176;49.502;11.754;2022-08-03T09:16:37;3.42;;;2.00;;
21183;SDS011;18176;49.502;11.754;2022-08-03T09:20:51;3.88;;;1.80;;
21183;SDS011;18176;49.502;11.754;2022-08-03T09:25:39;3.33;;;2.00;;
21183;SDS011;18176;49.502;11.754;2022-08-03T09:29:38;3.28;;;1.60;;
21183;SDS011;18176;49.502;11.754;2022-08-03T09:33:45;2.33;;;1.60;;
21183;SDS011;18176;49.502;11.754;2022-08-03T09:37:43;1.70;;;1.60;;
21183;SDS011;18176;49.502;11.754;2022-08-03T09:42:06;3.03;;;1.83;;
21183;SDS011;18176;49.502;11.754;2022-08-03T09:46:04;3.92;;;1.67;;
21183;SDS011;18176;49.502;11.754;2022-08-03T09:50:04;1.80;;;1.70;;
21183;SDS011;18176;49.502;11.754;2022-08-03T09:54:03;2.83;;;2.20;;
21183;SDS011;18176;49.502;11.754;2022-08-03T09:58:11;1.80;;;1.70;;
21183;SDS011;18176;49.502;11.754;2022-08-03T10:02:18;3.40;;;1.90;;
21183;SDS011;18176;49.502;11.754;2022-08-03T10:06:19;2.80;;;1.80;;
21183;SDS011;18176;49.502;11.754;2022-08-03T10:10:24;1.92;;;1.67;;
21183;SDS011;18176;49.502;11.754;2022-08-03T10:14:27;2.40;;;1.95;;
21183;SDS011;18176;49.502;11.754;2022-08-03T10:18:27;4.47;;;1.75;;
21183;SDS011;18176;49.502;11.754;2022-08-03T10:22:27;2.95;;;1.60;;
21183;SDS011;18176;49.502;11.754;2022-08-03T10:26:30;2.83;;;1.75;;
21183;SDS011;18176;49.502;11.754;2022-08-03T10:30:31;3.45;;;1.83;;
21183;SDS011;18176;49.502;11.754;2022-08-03T10:34:32;2.00;;;1.70;;
21183;SDS011;18176;49.502;11.754;2022-08-03T10:38:43;2.88;;;1.70;;
21183;SDS011;18176;49.502;11.754;2022-08-03T10:42:53;1.80;;;1.70;;
21183;SDS011;18176;49.502;11.754;2022-08-03T10:46:54;1.52;;;1.42;;
21183;SDS011;18176;49.502;11.754;2022-08-03T10:50:52;2.72;;;1.80;;
21183;SDS011;18176;49.502;11.754;2022-08-03T10:54:50;2.08;;;1.60;;
21183;SDS011;18176;49.502;11.754;2022-08-03T10:59:06;2.67;;;1.70;;
21183;SDS011;18176;49.502;11.754;2022-08-03T11:03:12;1.98;;;1.77;;
21183;SDS011;18176;49.502;11.754;2022-08-03T11:15:15;4.30;;;1.83;;
21183;SDS011;18176;49.502;11.754;2022-08-03T11:19:42;1.90;;;1.80;;
21183;SDS011;18176;49.502;11.754;2022-08-03T11:23:53;1.80;;;1.70;;
21183;SDS011;18176;49.502;11.754;2022-08-03T11:41:35;2.08;;;1.70;;
21183;SDS011;18176;49.502;11.754;2022-08-03T11:45:46;2.83;;;1.70;;
21183;SDS011;18176;49.502;11.754;2022-08-03T11:49:56;2.88;;;1.70;;
21183;SDS011;18176;49.502;11.754;2022-08-03T11:53:59;6.35;;;1.73;;
21183;SDS011;18176;49.502;11.754;2022-08-03T11:57:59;1.63;;;1.52;;
21183;SDS011;18176;49.502;11.754;2022-08-03T12:02:16;1.80;;;1.40;;
21183;SDS011;18176;49.502;11.754;2022-08-03T12:06:14;3.15;;;1.73;;
21183;SDS011;18176;49.502;11.754;2022-08-03T12:10:13;1.70;;;1.60;;
21183;SDS011;18176;49.502;11.754;2022-08-03T12:14:15;2.75;;;1.50;;
21183;SDS011;18176;49.502;11.754;2022-08-03T12:18:33;6.63;;;1.70;;
21183;SDS011;18176;49.502;11.754;2022-08-03T12:22:34;3.00;;;1.50;;
21183;SDS011;18176;49.502;11.754;2022-08-03T12:26:46;3.22;;;1.45;;
21183;SDS011;18176;49.502;11.754;2022-08-03T12:30:54;2.47;;;1.48;;
21183;SDS011;18176;49.502;11.754;2022-08-03T12:34:57;2.03;;;1.83;;
21183;SDS011;18176;49.502;11.754;2022-08-03T12:39:01;1.60;;;1.50;;
21183;SDS011;18176;49.502;11.754;2022-08-03T12:43:09;1.95;;;1.70;;
21183;SDS011;18176;49.502;11.754;2022-08-03T12:47:08;3.28;;;1.80;;
21183;SDS011;18176;49.502;11.754;2022-08-03T12:51:11;2.72;;;1.60;;
21183;SDS011;18176;49.502;11.754;2022-08-03T12:55:08;1.67;;;1.58;;
21183;SDS011;18176;49.502;11.754;2022-08-03T12:59:22;3.90;;;1.77;;
21183;SDS011;18176;49.502;11.754;2022-08-03T13:03:39;5.30;;;1.80;;
21183;SDS011;18176;49.502;11.754;2022-08-03T13:07:48;3.75;;;1.60;;
21183;SDS011;18176;49.502;11.754;2022-08-03T13:11:45;2.35;;;1.80;;
21183;SDS011;18176;49.502;11.754;2022-08-03T13:15:57;1.70;;;1.60;;
21183;SDS011;18176;49.502;11.754;2022-08-03T13:19:54;1.67;;;1.52;;
21183;SDS011;18176;49.502;11.754;2022-08-03T13:23:51;2.22;;;1.67;;
21183;SDS011;18176;49.502;11.754;2022-08-03T13:27:50;1.70;;;1.60;;
21183;SDS011;18176;49.502;11.754;2022-08-03T13:32:01;2.83;;;1.60;;
21183;SDS011;18176;49.502;11.754;2022-08-03T13:35:59;5.32;;;1.60;;
21183;SDS011;18176;49.502;11.754;2022-08-03T13:39:57;2.85;;;1.75;;
21183;SDS011;18176;49.502;11.754;2022-08-03T13:43:58;1.70;;;1.60;;
21183;SDS011;18176;49.502;11.754;2022-08-03T13:48:15;4.07;;;1.70;;
21183;SDS011;18176;49.502;11.754;2022-08-03T13:52:32;1.70;;;1.60;;
21183;SDS011;18176;49.502;11.754;2022-08-03T13:56:31;1.70;;;1.60;;
21183;SDS011;18176;49.502;11.754;2022-08-03T14:00:28;1.60;;;1.50;;
21183;SDS011;18176;49.502;11.754;2022-08-03T14:04:25;1.80;;;1.60;;
21183;SDS011;18176;49.502;11.754;2022-08-03T14:08:22;4.07;;;1.60;;
21183;SDS011;18176;49.502;11.754;2022-08-03T14:12:20;2.25;;;1.70;;
21183;SDS011;18176;49.502;11.754;2022-08-03T14:16:17;2.95;;;1.70;;
21183;SDS011;18176;49.502;11.754;2022-08-03T14:20:16;2.30;;;1.50;;
21183;SDS011;18176;49.502;11.754;2022-08-03T14:24:32;3.35;;;1.33;;
21183;SDS011;18176;49.502;11.754;2022-08-03T14:28:29;2.45;;;1.50;;
21183;SDS011;18176;49.502;11.754;2022-08-03T14:32:26;2.30;;;1.60;;
21183;SDS011;18176;49.502;11.754;2022-08-03T14:36:26;2.42;;;2.10;;
21183;SDS011;18176;49.502;11.754;2022-08-03T14:40:23;3.70;;;1.80;;
21183;SDS011;18176;49.502;11.754;2022-08-03T14:44:20;4.53;;;1.67;;
21183;SDS011;18176;49.502;11.754;2022-08-03T14:48:18;5.75;;;1.85;;
21183;SDS011;18176;49.502;11.754;2022-08-03T14:52:36;4.13;;;1.70;;
21183;SDS011;18176;49.502;11.754;2022-08-03T14:56:36;4.35;;;1.60;;
21183;SDS011;18176;49.502;11.754;2022-08-03T15:00:33;5.57;;;1.50;;
21183;SDS011;18176;49.502;11.754;2022-08-03T15:04:31;2.35;;;1.67;;
21183;SDS011;18176;49.502;11.754;2022-08-03T15:08:28;2.15;;;1.80;;
21183;SDS011;18176;49.502;11.754;2022-08-03T15:12:25;3.88;;;1.60;;
21183;SDS011;18176;49.502;11.754;2022-08-03T15:16:22;2.67;;;1.60;;
21183;SDS011;18176;49.502;11.754;2022-08-03T15:20:25;1.67;;;1.58;;
21183;SDS011;18176;49.502;11.754;2022-08-03T15:24:39;4.00;;;1.88;;
21183;SDS011;18176;49.502;11.754;2022-08-03T15:28:37;3.10;;;1.80;;
21183;SDS011;18176;49.502;11.754;2022-08-03T15:32:33;1.70;;;1.60;;
21183;SDS011;18176;49.502;11.754;2022-08-03T15:36:31;2.55;;;1.70;;
21183;SDS011;18176;49.502;11.754;2022-08-03T15:40:28;2.40;;;1.70;;
21183;SDS011;18176;49.502;11.754;2022-08-03T15:44:25;2.53;;;1.70;;
21183;SDS011;18176;49.502;11.754;2022-08-03T15:48:22;6.63;;;1.73;;
21183;SDS011;18176;49.502;11.754;2022-08-03T15:52:21;2.65;;;1.80;;
21183;SDS011;18176;49.502;11.754;2022-08-03T15:56:18;2.25;;;2.08;;
21183;SDS011;18176;49.502;11.754;2022-08-03T16:00:16;2.08;;;1.58;;
21183;SDS011;18176;49.502;11.754;2022-08-03T16:04:13;3.13;;;2.67;;
21183;SDS011;18176;49.502;11.754;2022-08-03T16:08:10;1.73;;;1.63;;
21183;SDS011;18176;49.502;11.754;2022-08-03T16:12:09;1.80;;;1.70;;
21183;SDS011;18176;49.502;11.754;2022-08-03T16:16:12;1.65;;;1.50;;
21183;SDS011;18176;49.502;11.754;2022-08-03T16:20:09;2.58;;;1.67;;
21183;SDS011;18176;49.502;11.754;2022-08-03T16:24:27;2.65;;;1.70;;
21183;SDS011;18176;49.502;11.754;2022-08-03T16:28:24;1.85;;;1.63;;
21183;SDS011;18176;49.502;11.754;2022-08-03T16:32:22;2.58;;;1.60;;
21183;SDS011;18176;49.502;11.754;2022-08-03T16:36:19;3.22;;;1.90;;
21183;SDS011;18176;49.502;11.754;2022-08-03T16:40:16;3.50;;;1.95;;
21183;SDS011;18176;49.502;11.754;2022-08-03T16:44:14;3.95;;;1.70;;
21183;SDS011;18176;49.502;11.754;2022-08-03T16:48:12;2.15;;;1.95;;
21183;SDS011;18176;49.502;11.754;2022-08-03T16:52:13;5.07;;;1.80;;
21183;SDS011;18176;49.502;11.754;2022-08-03T16:56:13;4.15;;;1.63;;
21183;SDS011;18176;49.502;11.754;2022-08-03T17:00:10;2.03;;;1.85;;
21183;SDS011;18176;49.502;11.754;2022-08-03T17:04:28;3.92;;;1.80;;
21183;SDS011;18176;49.502;11.754;2022-08-03T17:08:27;3.75;;;2.00;;
21183;SDS011;18176;49.502;11.754;2022-08-03T17:12:25;2.35;;;1.88;;
21183;SDS011;18176;49.502;11.754;2022-08-03T17:16:25;6.47;;;1.85;;
21183;SDS011;18176;49.502;11.754;2022-08-03T17:20:23;6.00;;;1.75;;
21183;SDS011;18176;49.502;11.754;2022-08-03T17:24:32;8.20;;;2.28;;
21183;SDS011;18176;49.502;11.754;2022-08-03T17:28:39;3.13;;;1.88;;
21183;SDS011;18176;49.502;11.754;2022-08-03T17:32:46;7.38;;;1.80;;
21183;SDS011;18176;49.502;11.754;2022-08-03T17:36:53;5.93;;;1.95;;
21183;SDS011;18176;49.502;11.754;2022-08-03T17:41:00;2.58;;;1.90;;
21183;SDS011;18176;49.502;11.754;2022-08-03T17:45:06;2.15;;;1.95;;
21183;SDS011;18176;49.502;11.754;2022-08-03T17:49:11;4.25;;;2.40;;
21183;SDS011;18176;49.502;11.754;2022-08-03T17:53:30;2.10;;;1.83;;
21183;SDS011;18176;49.502;11.754;2022-08-03T17:57:44;3.70;;;2.10;;
21183;SDS011;18176;49.502;11.754;2022-08-03T18:07:06;4.90;;;2.00;;
21183;SDS011;18176;49.502;11.754;2022-08-03T18:11:27;2.28;;;2.10;;
21183;SDS011;18176;49.502;11.754;2022-08-03T18:15:41;4.55;;;1.98;;
21183;SDS011;18176;49.502;11.754;2022-08-03T18:19:46;4.18;;;2.03;;
21183;SDS011;18176;49.502;11.754;2022-08-03T18:24:04;3.03;;;1.77;;
21183;SDS011;18176;49.502;11.754;2022-08-03T18:28:05;2.80;;;1.90;;
21183;SDS011;18176;49.502;11.754;2022-08-03T18:32:06;6.22;;;2.30;;
21183;SDS011;18176;49.502;11.754;2022-08-03T18:36:12;3.70;;;2.20;;
21183;SDS011;18176;49.502;11.754;2022-08-03T18:40:25;4.07;;;2.10;;
21183;SDS011;18176;49.502;11.754;2022-08-03T18:44:24;2.42;;;2.10;;
21183;SDS011;18176;49.502;11.754;2022-08-03T18:57:57;2.00;;;1.90;;
21183;SDS011;18176;49.502;11.754;2022-08-03T19:02:26;3.45;;;2.00;;
21183;SDS011;18176;49.502;11.754;2022-08-03T19:06:44;3.35;;;1.90;;
21183;SDS011;18176;49.502;11.754;2022-08-03T19:10:45;2.10;;;1.90;;
21183;SDS011;18176;49.502;11.754;2022-08-03T19:14:54;4.63;;;1.90;;
21183;SDS011;18176;49.502;11.754;2022-08-03T19:19:00;2.65;;;2.10;;
21183;SDS011;18176;49.502;11.754;2022-08-03T19:22:58;2.75;;;1.90;;
21183;SDS011;18176;49.502;11.754;2022-08-03T19:26:57;2.95;;;2.05;;
21183;SDS011;18176;49.502;11.754;2022-08-03T19:30:59;2.65;;;1.98;;
21183;SDS011;18176;49.502;11.754;2022-08-03T19:35:03;3.30;;;2.08;;
21183;SDS011;18176;49.502;11.754;2022-08-03T19:39:08;2.60;;;1.80;;
21183;SDS011;18176;49.502;11.754;2022-08-03T19:43:08;2.47;;;1.98;;
21183;SDS011;18176;49.502;11.754;2022-08-03T19:47:19;2.25;;;2.05;;
21183;SDS011;18176;49.502;11.754;2022-08-03T19:51:29;4.75;;;2.10;;
21183;SDS011;18176;49.502;11.754;2022-08-03T19:55:50;3.58;;;1.90;;
21183;SDS011;18176;49.502;11.754;2022-08-03T19:59:52;2.92;;;1.90;;
21183;SDS011;18176;49.502;11.754;2022-08-03T20:03:51;2.10;;;2.00;;
21183;SDS011;18176;49.502;11.754;2022-08-03T20:07:48;2.25;;;2.03;;
21183;SDS011;18176;49.502;11.754;2022-08-03T20:11:47;2.40;;;2.20;;
21183;SDS011;18176;49.502;11.754;2022-08-03T20:15:44;2.70;;;2.13;;
21183;SDS011;18176;49.502;11.754;2022-08-03T20:19:42;3.72;;;1.90;;
21183;SDS011;18176;49.502;11.754;2022-08-03T20:23:40;2.70;;;2.15;;
21183;SDS011;18176;49.502;11.754;2022-08-03T20:28:34;2.55;;;2.20;;
21183;SDS011;18176;49.502;11.754;2022-08-03T20:32:26;2.95;;;2.35;;
21183;SDS011;18176;49.502;11.754;2022-08-03T20:36:23;2.20;;;2.08;;
21183;SDS011;18176;49.502;11.754;2022-08-03T20:40:22;2.30;;;2.10;;
21183;SDS011;18176;49.502;11.754;2022-08-03T20:44:22;3.75;;;2.50;;
21183;SDS011;18176;49.502;11.754;2022-08-03T20:48:21;4.78;;;2.33;;
21183;SDS011;18176;49.502;11.754;2022-08-03T20:52:19;3.42;;;2.25;;
21183;SDS011;18176;49.502;11.754;2022-08-03T20:56:21;4.25;;;2.40;;
21183;SDS011;18176;49.502;11.754;2022-08-03T21:00:21;6.38;;;2.25;;
21183;SDS011;18176;49.502;11.754;2022-08-03T21:04:22;2.47;;;2.10;;
21183;SDS011;18176;49.502;11.754;2022-08-03T21:08:20;5.05;;;2.10;;
21183;SDS011;18176;49.502;11.754;2022-08-03T21:12:24;3.28;;;2.13;;
21183;SDS011;18176;49.502;11.754;2022-08-03T21:16:47;2.85;;;2.00;;
21183;SDS011;18176;49.502;11.754;2022-08-03T21:20:47;3.05;;;2.20;;
21183;SDS011;18176;49.502;11.754;2022-08-03T21:24:46;3.92;;;2.42;;
21183;SDS011;18176;49.502;11.754;2022-08-03T21:28:52;5.28;;;2.65;;
21183;SDS011;18176;49.502;11.754;2022-08-03T21:32:52;4.38;;;2.45;;
21183;SDS011;18176;49.502;11.754;2022-08-03T21:36:51;3.75;;;2.65;;
21183;SDS011;18176;49.502;11.754;2022-08-03T21:40:49;4.30;;;2.53;;
21183;SDS011;18176;49.502;11.754;2022-08-03T21:44:47;4.53;;;2.50;;
21183;SDS011;18176;49.502;11.754;2022-08-03T21:48:52;9.50;;;2.50;;
21183;SDS011;18176;49.502;11.754;2022-08-03T21:53:16;3.03;;;2.60;;
21183;SDS011;18176;49.502;11.754;2022-08-03T21:57:19;3.55;;;2.60;;
21183;SDS011;18176;49.502;11.754;2022-08-03T22:01:21;6.45;;;2.53;;
21183;SDS011;18176;49.502;11.754;2022-08-03T22:05:22;4.68;;;3.00;;
21183;SDS011;18176;49.502;11.754;2022-08-03T22:09:39;5.18;;;2.83;;
21183;SDS011;18176;49.502;11.754;2022-08-03T22:13:46;5.47;;;3.10;;
21183;SDS011;18176;49.502;11.754;2022-08-03T22:17:45;7.45;;;2.83;;
21183;SDS011;18176;49.502;11.754;2022-08-03T22:21:52;6.20;;;3.05;;
21183;SDS011;18176;49.502;11.754;2022-08-03T22:25:50;6.45;;;2.88;;
21183;SDS011;18176;49.502;11.754;2022-08-03T22:29:49;4.45;;;3.05;;
21183;SDS011;18176;49.502;11.754;2022-08-03T22:33:51;3.92;;;2.63;;
21183;SDS011;18176;49.502;11.754;2022-08-03T22:37:52;5.53;;;2.83;;
21183;SDS011;18176;49.502;11.754;2022-08-03T22:41:52;5.10;;;3.10;;
21183;SDS011;18176;49.502;11.754;2022-08-03T22:45:52;3.08;;;2.78;;
21183;SDS011;18176;49.502;11.754;2022-08-03T22:50:09;4.82;;;2.92;;
21183;SDS011;18176;49.502;11.754;2022-08-03T22:54:30;4.22;;;3.20;;
21183;SDS011;18176;49.502;11.754;2022-08-03T22:58:28;4.57;;;2.95;;
21183;SDS011;18176;49.502;11.754;2022-08-03T23:02:25;4.22;;;3.00;;
21183;SDS011;18176;49.502;11.754;2022-08-03T23:06:25;3.15;;;2.72;;
21183;SDS011;18176;49.502;11.754;2022-08-03T23:10:30;3.67;;;3.00;;
21183;SDS011;18176;49.502;11.754;2022-08-03T23:14:33;3.67;;;3.03;;
21183;SDS011;18176;49.502;11.754;2022-08-03T23:18:35;4.07;;;3.10;;
21183;SDS011;18176;49.502;11.754;2022-08-03T23:22:38;3.13;;;2.80;;
21183;SDS011;18176;49.502;11.754;2022-08-03T23:26:38;2.97;;;2.78;;
21183;SDS011;18176;49.502;11.754;2022-08-03T23:30:36;3.35;;;2.65;;
21183;SDS011;18176;49.502;11.754;2022-08-03T23:34:34;3.00;;;2.80;;
21183;SDS011;18176;49.502;11.754;2022-08-03T23:38:54;4.03;;;2.60;;
21183;SDS011;18176;49.502;11.754;2022-08-03T23:42:51;3.47;;;2.78;;
21183;SDS011;18176;49.502;11.754;2022-08-03T23:46:48;3.35;;;2.60;;
21183;SDS011;18176;49.502;11.754;2022-08-03T23:50:46;4.15;;;2.80;;
21183;SDS011;18176;49.502;11.754;2022-08-03T23:59:13;4.55;;;2.83;;
